createdAt,value
2023-05-19T00:01:20.460Z,8.63
2023-05-19T00:03:55.198Z,8.68
2023-05-19T00:06:34.409Z,8.70
2023-05-19T00:09:07.269Z,7.93
2023-05-19T00:11:38.365Z,7.60
2023-05-19T00:14:07.498Z,8.30
2023-05-19T00:16:35.095Z,7.82
2023-05-19T00:19:04.251Z,8.55
2023-05-19T00:21:31.846Z,8.00
2023-05-19T00:23:59.101Z,7.53
2023-05-19T00:26:28.415Z,8.23
2023-05-19T00:28:55.238Z,8.00
2023-05-19T00:31:22.106Z,8.15
2023-05-19T00:33:48.901Z,8.00
2023-05-19T00:36:15.801Z,8.37
2023-05-19T00:38:42.523Z,8.90
2023-05-19T00:41:11.962Z,8.90
2023-05-19T00:43:38.722Z,8.25
2023-05-19T00:46:05.635Z,8.73
2023-05-19T00:48:32.363Z,8.33
2023-05-19T00:51:04.719Z,8.45
2023-05-19T00:53:35.624Z,8.50
2023-05-19T00:56:05.919Z,8.65
2023-05-19T00:58:33.727Z,8.80
2023-05-19T01:01:05.326Z,8.23
2023-05-19T01:03:35.149Z,7.63
2023-05-19T01:06:06.220Z,8.25
2023-05-19T01:08:34.358Z,7.70
2023-05-19T01:11:01.465Z,7.75
2023-05-19T01:13:29.088Z,8.30
2023-05-19T01:16:06.944Z,8.38
2023-05-19T01:18:42.935Z,8.27
2023-05-19T01:21:17.787Z,9.18
2023-05-19T01:23:57.068Z,8.65
2023-05-19T01:26:52.307Z,8.97
2023-05-19T01:29:40.295Z,8.40
2023-05-19T01:32:09.471Z,9.30
2023-05-19T01:34:42.137Z,8.40
2023-05-19T01:37:09.795Z,8.32
2023-05-19T01:39:37.427Z,8.60
2023-05-19T01:42:04.879Z,8.98
2023-05-19T01:44:33.091Z,9.52
2023-05-19T01:47:00.918Z,9.00
2023-05-19T01:49:27.754Z,9.15
2023-05-19T01:51:54.693Z,7.90
2023-05-19T01:54:21.613Z,8.13
2023-05-19T01:57:23.152Z,7.53
2023-05-19T02:00:12.317Z,8.82
2023-05-19T02:02:50.112Z,7.93
2023-05-19T02:05:29.530Z,8.32
2023-05-19T02:08:06.556Z,8.13
2023-05-19T02:10:40.098Z,8.93
2023-05-19T02:13:09.347Z,8.60
2023-05-19T02:15:42.154Z,8.40
2023-05-19T02:18:11.731Z,7.97
2023-05-19T02:20:39.744Z,8.95
2023-05-19T02:23:06.852Z,8.00
2023-05-19T02:25:36.872Z,8.07
2023-05-19T02:28:03.639Z,9.10
2023-05-19T02:30:32.139Z,8.73
2023-05-19T02:32:59.622Z,9.13
2023-05-19T02:35:29.530Z,9.15
2023-05-19T02:37:59.769Z,9.43
2023-05-19T02:40:26.516Z,9.07
2023-05-19T02:42:53.250Z,8.83
2023-05-19T02:45:20.059Z,9.15
2023-05-19T02:47:46.902Z,8.65
2023-05-19T02:50:13.697Z,8.98
2023-05-19T02:52:40.578Z,9.40
2023-05-19T02:55:10.007Z,9.93
2023-05-19T02:57:36.714Z,9.32
2023-05-19T03:00:03.866Z,9.63
2023-05-19T03:02:30.846Z,8.82
2023-05-19T03:04:57.971Z,9.25
2023-05-19T03:07:25.119Z,9.63
2023-05-19T03:09:52.643Z,8.40
2023-05-19T03:12:19.444Z,9.32
2023-05-19T03:14:46.500Z,9.02
2023-05-19T03:17:13.419Z,7.95
2023-05-19T03:19:40.234Z,8.53
2023-05-19T03:22:07.136Z,8.15
2023-05-19T03:24:33.949Z,8.63
2023-05-19T03:27:00.821Z,8.02
2023-05-19T03:29:27.577Z,8.35
2023-05-19T03:31:54.465Z,9.37
2023-05-19T03:34:23.581Z,9.40
2023-05-19T03:36:50.567Z,8.93
2023-05-19T03:39:17.347Z,8.80
2023-05-19T03:41:46.894Z,8.45
2023-05-19T03:44:13.634Z,9.83
2023-05-19T03:46:40.469Z,8.57
2023-05-19T03:49:07.578Z,8.45
2023-05-19T03:51:35.013Z,9.00
2023-05-19T03:54:02.172Z,10.57
2023-05-19T03:56:29.014Z,9.77
2023-05-19T03:58:56.010Z,10.00
2023-05-19T04:01:22.794Z,9.90
2023-05-19T04:03:49.607Z,8.63
2023-05-19T04:06:17.663Z,8.98
2023-05-19T04:08:44.577Z,7.97
2023-05-19T04:11:11.612Z,8.32
2023-05-19T04:13:39.487Z,8.60
2023-05-19T04:16:07.066Z,8.88
2023-05-19T04:18:33.881Z,8.57
2023-05-19T04:21:00.669Z,8.87
2023-05-19T04:23:27.408Z,8.20
2023-05-19T04:25:54.738Z,8.27
2023-05-19T04:28:21.781Z,8.90
2023-05-19T04:30:48.627Z,8.30
2023-05-19T04:33:15.470Z,8.57
2023-05-19T04:35:43.992Z,8.57
2023-05-19T04:38:12.108Z,9.10
2023-05-19T04:40:40.470Z,7.50
2023-05-19T04:43:07.480Z,8.55
2023-05-19T04:45:37.803Z,8.50
2023-05-19T04:48:05.239Z,8.93
2023-05-19T04:50:32.672Z,9.30
2023-05-19T04:52:59.658Z,9.00
2023-05-19T04:55:28.975Z,10.02
2023-05-19T04:57:55.750Z,9.37
2023-05-19T05:00:26.098Z,10.15
2023-05-19T05:02:55.270Z,9.80
2023-05-19T05:05:22.076Z,9.30
2023-05-19T05:07:49.587Z,9.27
2023-05-19T05:10:16.438Z,9.77
2023-05-19T05:12:43.483Z,9.65
2023-05-19T05:15:10.915Z,8.95
2023-05-19T05:17:38.013Z,9.45
2023-05-19T05:20:06.709Z,8.85
2023-05-19T05:22:34.173Z,9.30
2023-05-19T05:25:04.134Z,10.27
2023-05-19T05:27:31.569Z,10.45
2023-05-19T05:29:59.520Z,9.20
2023-05-19T05:32:28.758Z,10.98
2023-05-19T05:34:55.642Z,9.50
2023-05-19T05:37:23.064Z,10.18
2023-05-19T05:39:49.765Z,10.35
2023-05-19T05:42:16.564Z,10.18
2023-05-19T05:44:43.400Z,9.60
2023-05-19T05:47:12.074Z,10.37
2023-05-19T05:49:40.384Z,11.18
2023-05-19T05:52:09.322Z,9.73
2023-05-19T05:54:38.787Z,10.10
2023-05-19T05:57:08.788Z,10.38
2023-05-19T05:59:35.607Z,10.63
2023-05-19T06:02:02.734Z,11.20
2023-05-19T06:04:32.375Z,10.95
2023-05-19T06:07:01.694Z,10.65
2023-05-19T06:09:30.164Z,11.02
2023-05-19T06:11:59.245Z,9.97
2023-05-19T06:14:26.296Z,9.18
2023-05-19T06:16:53.297Z,9.85
2023-05-19T06:19:20.367Z,11.63
2023-05-19T06:21:47.255Z,7.55
2023-05-19T06:24:14.009Z,9.27
2023-05-19T06:26:40.782Z,10.70
2023-05-19T06:29:07.572Z,10.63
2023-05-19T06:31:34.479Z,9.40
2023-05-19T06:34:01.288Z,9.68
2023-05-19T06:36:28.140Z,9.87
2023-05-19T06:38:54.925Z,10.88
2023-05-19T06:41:23.066Z,10.05
2023-05-19T06:43:49.934Z,10.60
2023-05-19T06:46:18.024Z,11.15
2023-05-19T06:48:44.851Z,10.40
2023-05-19T06:51:11.715Z,10.13
2023-05-19T06:53:38.433Z,9.70
2023-05-19T06:56:08.283Z,10.50
2023-05-19T06:58:35.062Z,10.27
2023-05-19T07:01:01.875Z,9.37
2023-05-19T07:03:29.853Z,9.80
2023-05-19T07:05:57.993Z,10.07
2023-05-19T07:08:24.773Z,10.05
2023-05-19T07:10:55.471Z,10.00
2023-05-19T07:13:22.996Z,9.83
2023-05-19T07:15:52.412Z,9.95
2023-05-19T07:18:19.998Z,9.18
2023-05-19T07:20:46.742Z,10.57
2023-05-19T07:23:15.400Z,11.00
2023-05-19T07:25:43.461Z,10.47
2023-05-19T07:28:10.224Z,10.63
2023-05-19T07:30:40.860Z,11.13
2023-05-19T07:33:10.959Z,10.40
2023-05-19T07:35:40.192Z,10.57
2023-05-19T07:38:07.593Z,9.30
2023-05-19T07:40:34.473Z,10.15
2023-05-19T07:43:01.332Z,9.88
2023-05-19T07:45:28.132Z,10.20
2023-05-19T07:47:55.035Z,10.27
2023-05-19T07:50:22.365Z,10.83
2023-05-19T07:52:49.159Z,10.95
2023-05-19T07:55:16.623Z,10.70
2023-05-19T07:57:43.399Z,9.93
2023-05-19T08:00:12.160Z,10.13
2023-05-19T08:02:39.051Z,10.17
2023-05-19T08:05:06.294Z,11.98
2023-05-19T08:07:33.218Z,9.30
2023-05-19T08:09:59.953Z,9.55
2023-05-19T08:12:26.899Z,9.88
2023-05-19T08:14:53.691Z,10.70
2023-05-19T08:17:20.467Z,9.63
2023-05-19T08:19:47.235Z,10.73
2023-05-19T08:22:14.036Z,10.18
2023-05-19T08:24:43.247Z,10.23
2023-05-19T08:27:10.174Z,10.60
2023-05-19T08:29:38.329Z,10.13
2023-05-19T08:32:05.522Z,10.25
2023-05-19T08:34:32.915Z,10.95
2023-05-19T08:36:59.986Z,9.98
2023-05-19T08:39:27.431Z,10.30
2023-05-19T08:41:57.683Z,10.30
2023-05-19T08:44:24.620Z,9.55
2023-05-19T08:46:53.250Z,9.70
2023-05-19T08:49:25.605Z,10.45
2023-05-19T08:52:05.554Z,9.47
2023-05-19T08:55:01.244Z,9.57
2023-05-19T08:57:28.786Z,9.00
2023-05-19T08:59:56.796Z,8.43
2023-05-19T09:02:24.057Z,8.57
2023-05-19T09:04:51.346Z,8.30
2023-05-19T09:07:19.652Z,8.68
2023-05-19T09:09:46.594Z,8.45
2023-05-19T09:12:14.456Z,8.80
2023-05-19T09:14:41.302Z,10.00
2023-05-19T09:17:08.222Z,9.57
2023-05-19T09:19:35.293Z,9.50
2023-05-19T09:22:05.517Z,9.18
2023-05-19T09:24:35.008Z,9.75
2023-05-19T09:27:02.348Z,11.57
2023-05-19T09:29:29.249Z,11.73
2023-05-19T09:32:05.387Z,10.63
2023-05-19T09:34:32.376Z,11.43
2023-05-19T09:37:02.227Z,10.65
2023-05-19T09:39:30.010Z,11.23
2023-05-19T09:41:58.830Z,9.63
2023-05-19T09:44:29.729Z,9.80
2023-05-19T09:46:57.453Z,10.27
2023-05-19T09:49:32.738Z,10.07
2023-05-19T09:52:03.931Z,10.00
2023-05-19T09:54:32.539Z,9.13
2023-05-19T09:57:03.774Z,10.23
2023-05-19T09:59:33.378Z,9.68
2023-05-19T10:02:02.315Z,9.18
2023-05-19T10:04:33.553Z,8.77
2023-05-19T10:07:06.059Z,9.77
2023-05-19T10:09:37.227Z,9.27
2023-05-19T10:12:05.636Z,9.75
2023-05-19T10:14:32.419Z,8.57
2023-05-19T10:16:59.766Z,7.88
2023-05-19T10:19:28.247Z,8.50
2023-05-19T10:21:56.362Z,8.05
2023-05-19T10:24:23.223Z,8.45
2023-05-19T10:27:17.274Z,8.10
2023-05-19T10:29:50.135Z,8.57
2023-05-19T10:32:24.015Z,9.07
2023-05-19T10:35:16.714Z,7.97
2023-05-19T10:38:07.042Z,7.57
2023-05-19T10:40:38.310Z,8.68
2023-05-19T10:43:19.688Z,8.65
2023-05-19T10:45:49.525Z,8.33
2023-05-19T10:48:17.315Z,8.75
2023-05-19T10:50:48.069Z,8.80
2023-05-19T10:53:19.516Z,8.98
2023-05-19T10:56:07.361Z,8.98
2023-05-19T10:58:46.197Z,9.80
2023-05-19T11:01:19.812Z,8.23
2023-05-19T11:03:53.991Z,8.80
2023-05-19T11:06:25.013Z,9.38
2023-05-19T11:09:13.831Z,8.98
2023-05-19T11:11:54.385Z,9.23
2023-05-19T11:14:27.140Z,8.70
2023-05-19T11:17:00.299Z,8.60
2023-05-19T11:19:35.707Z,9.30
2023-05-19T11:22:10.606Z,9.68
2023-05-19T11:24:44.751Z,8.90
2023-05-19T11:27:31.403Z,9.70
2023-05-19T11:30:09.953Z,8.82
2023-05-19T11:32:42.010Z,9.13
2023-05-19T11:35:10.141Z,10.27
2023-05-19T11:37:42.954Z,8.90
2023-05-19T11:40:11.075Z,9.10
2023-05-19T11:42:37.888Z,9.93
2023-05-19T11:45:05.532Z,9.70
2023-05-19T11:47:55.751Z,10.48
2023-05-19T11:50:31.357Z,10.40
2023-05-19T11:53:00.693Z,11.38
2023-05-19T11:55:28.445Z,10.52
2023-05-19T11:58:05.503Z,11.20
2023-05-19T12:00:39.238Z,9.77
2023-05-19T12:03:07.009Z,10.33
2023-05-19T12:05:40.858Z,13.27
2023-05-19T12:08:10.374Z,10.85
2023-05-19T12:10:38.774Z,10.45
2023-05-19T12:13:09.136Z,10.82
2023-05-19T12:15:36.633Z,10.83
2023-05-19T12:18:06.317Z,11.70
2023-05-19T12:20:38.181Z,11.02
2023-05-19T12:23:05.345Z,11.65
2023-05-19T12:25:45.665Z,10.45
2023-05-19T12:28:12.561Z,10.60
2023-05-19T12:30:39.427Z,10.82
2023-05-19T12:33:06.445Z,10.35
2023-05-19T12:35:34.156Z,11.07
2023-05-19T12:38:05.023Z,10.38
2023-05-19T12:40:34.022Z,11.73
2023-05-19T12:43:01.132Z,10.70
2023-05-19T12:45:28.957Z,10.43
2023-05-19T12:47:56.186Z,10.70
2023-05-19T12:50:31.263Z,9.43
2023-05-19T12:53:02.598Z,11.20
2023-05-19T12:55:30.034Z,11.15
2023-05-19T12:57:58.254Z,10.52
2023-05-19T13:00:28.968Z,10.38
2023-05-19T13:03:07.513Z,10.25
2023-05-19T13:05:40.599Z,10.13
2023-05-19T13:08:08.324Z,11.13
2023-05-19T13:10:36.355Z,9.50
2023-05-19T13:13:04.042Z,9.65
2023-05-19T13:15:36.485Z,10.48
2023-05-19T13:18:06.237Z,10.67
2023-05-19T13:20:38.453Z,9.93
2023-05-19T13:23:06.042Z,9.07
2023-05-19T13:25:36.206Z,9.32
2023-05-19T13:28:05.834Z,9.90
2023-05-19T13:30:34.642Z,9.57
2023-05-19T13:33:02.175Z,9.43
2023-05-19T13:35:29.051Z,9.63
2023-05-19T13:37:55.877Z,9.30
2023-05-19T13:40:24.160Z,9.65
2023-05-19T13:42:51.058Z,9.53
2023-05-19T13:45:18.454Z,9.00
2023-05-19T13:47:45.286Z,9.07
2023-05-19T13:50:12.579Z,9.43
2023-05-19T13:52:39.538Z,9.90
2023-05-19T13:55:07.624Z,8.93
2023-05-19T13:57:34.437Z,10.30
2023-05-19T14:00:05.136Z,10.32
2023-05-19T14:02:37.894Z,9.43
2023-05-19T14:05:05.231Z,10.15
2023-05-19T14:07:34.735Z,10.53
2023-05-19T14:10:02.787Z,10.52
2023-05-19T14:12:37.846Z,10.15
2023-05-19T14:15:12.616Z,10.10
2023-05-19T14:17:43.898Z,10.32
2023-05-19T14:20:11.065Z,10.30
2023-05-19T14:22:41.103Z,9.70
2023-05-19T14:25:08.323Z,10.15
2023-05-19T14:27:35.073Z,9.73
2023-05-19T14:30:02.014Z,9.95
2023-05-19T14:32:30.431Z,9.93
2023-05-19T14:34:57.545Z,10.30
2023-05-19T14:37:26.616Z,11.13
2023-05-19T14:39:53.746Z,10.82
2023-05-19T14:42:20.529Z,11.50
2023-05-19T14:44:47.345Z,10.17
2023-05-19T14:47:14.279Z,10.45
2023-05-19T14:49:41.197Z,10.60
2023-05-19T14:52:10.584Z,10.00
2023-05-19T14:54:37.379Z,10.23
2023-05-19T14:57:08.238Z,10.93
2023-05-19T14:59:44.069Z,10.88
2023-05-19T15:02:12.092Z,10.73
2023-05-19T15:04:38.866Z,10.95
2023-05-19T15:07:10.353Z,11.45
2023-05-19T15:09:38.112Z,12.13
2023-05-19T15:12:05.154Z,12.90
2023-05-19T15:14:31.938Z,12.98
2023-05-19T15:16:59.243Z,11.85
2023-05-19T15:19:26.445Z,12.95
2023-05-19T15:21:53.620Z,15.10
2023-05-19T15:24:20.381Z,13.68
2023-05-19T15:26:49.688Z,12.20
2023-05-19T15:29:16.505Z,13.98
2023-05-19T15:31:44.696Z,14.35
2023-05-19T15:34:11.589Z,14.27
2023-05-19T15:36:38.406Z,14.77
2023-05-19T15:39:06.511Z,15.85
2023-05-19T15:41:35.845Z,15.38
2023-05-19T15:44:02.931Z,14.88
2023-05-19T15:46:30.256Z,15.00
2023-05-19T15:48:57.083Z,15.27
2023-05-19T15:51:24.150Z,15.63
2023-05-19T15:53:53.221Z,16.95
2023-05-19T15:56:20.148Z,17.33
2023-05-19T15:58:47.104Z,16.97
2023-05-19T16:01:15.187Z,18.02
2023-05-19T16:03:42.380Z,18.45
2023-05-19T16:06:12.304Z,18.92
2023-05-19T16:08:39.088Z,19.60
2023-05-19T16:11:06.100Z,20.07
2023-05-19T16:13:33.936Z,20.08
2023-05-19T16:16:01.116Z,19.48
2023-05-19T16:18:29.306Z,20.10
2023-05-19T16:20:56.564Z,20.67
2023-05-19T16:23:24.851Z,21.90
2023-05-19T16:25:51.726Z,20.38
2023-05-19T16:28:18.574Z,20.13
2023-05-19T16:30:46.059Z,19.80
2023-05-19T16:33:12.861Z,20.98
2023-05-19T16:35:39.799Z,20.30
2023-05-19T16:38:06.651Z,21.10
2023-05-19T16:40:33.701Z,18.95
2023-05-19T16:43:00.799Z,20.45
2023-05-19T16:45:27.591Z,21.35
2023-05-19T16:47:56.506Z,23.50
2023-05-19T16:50:23.358Z,20.27
2023-05-19T16:52:50.098Z,21.33
2023-05-19T16:55:20.039Z,20.55
2023-05-19T16:57:49.920Z,20.42
2023-05-19T17:00:19.276Z,20.50
2023-05-19T17:02:46.231Z,20.45
2023-05-19T17:05:13.093Z,20.08
2023-05-19T17:07:39.938Z,20.23
2023-05-19T17:10:07.145Z,21.25
2023-05-19T17:12:33.944Z,20.87
2023-05-19T17:15:00.705Z,20.75
2023-05-19T17:17:27.559Z,21.60
2023-05-19T17:19:54.437Z,22.50
2023-05-19T17:22:21.193Z,21.48
2023-05-19T17:24:48.037Z,21.10
2023-05-19T17:27:15.271Z,22.08
2023-05-19T17:29:42.088Z,23.17
2023-05-19T17:32:10.509Z,22.30
2023-05-19T17:34:37.402Z,21.77
2023-05-19T17:37:06.618Z,21.87
2023-05-19T17:39:33.415Z,21.73
2023-05-19T17:42:00.246Z,22.45
2023-05-19T17:44:27.177Z,23.05
2023-05-19T17:46:54.057Z,24.40
2023-05-19T17:49:23.083Z,23.00
2023-05-19T17:51:50.208Z,23.70
2023-05-19T17:54:17.498Z,23.83
2023-05-19T17:56:45.203Z,23.80
2023-05-19T17:59:12.328Z,25.08
2023-05-19T18:01:40.772Z,27.20
2023-05-19T18:04:13.112Z,24.23
2023-05-19T18:06:44.177Z,25.20
2023-05-19T18:09:11.254Z,25.80
2023-05-19T18:11:38.022Z,27.85
2023-05-19T18:14:04.888Z,26.93
2023-05-19T18:16:31.723Z,26.85
2023-05-19T18:18:58.504Z,26.48
2023-05-19T18:21:25.372Z,26.63
2023-05-19T18:23:52.183Z,29.08
2023-05-19T18:26:19.044Z,27.93
2023-05-19T18:28:45.937Z,25.40
2023-05-19T18:31:19.182Z,23.75
2023-05-19T18:33:47.271Z,22.88
2023-05-19T18:36:16.493Z,22.33
2023-05-19T18:38:43.428Z,23.30
2023-05-19T18:41:10.440Z,21.63
2023-05-19T18:43:37.303Z,21.85
2023-05-19T18:46:04.122Z,20.35
2023-05-19T18:48:32.126Z,21.08
2023-05-19T18:50:59.483Z,19.27
2023-05-19T18:53:26.730Z,19.80
2023-05-19T18:55:53.479Z,19.75
2023-05-19T18:58:22.196Z,18.52
2023-05-19T19:00:49.056Z,19.42
2023-05-19T19:03:18.310Z,18.17
2023-05-19T19:05:45.099Z,18.90
2023-05-19T19:08:12.064Z,19.80
2023-05-19T19:10:40.738Z,19.52
2023-05-19T19:13:07.665Z,19.17
2023-05-19T19:15:34.609Z,19.83
2023-05-19T19:18:01.473Z,20.20
2023-05-19T19:20:28.253Z,22.60
2023-05-19T19:22:55.115Z,21.42
2023-05-19T19:25:23.549Z,22.35
2023-05-19T19:27:50.810Z,24.40
2023-05-19T19:30:17.693Z,25.45
2023-05-19T19:32:44.586Z,24.23
2023-05-19T19:35:11.583Z,25.00
2023-05-19T19:37:38.396Z,26.27
2023-05-19T19:40:08.785Z,25.10
2023-05-19T19:42:35.599Z,27.30
2023-05-19T19:45:02.446Z,24.90
2023-05-19T19:47:32.743Z,27.13
2023-05-19T19:50:01.165Z,26.13
2023-05-19T19:52:27.958Z,25.77
2023-05-19T19:54:54.719Z,27.27
2023-05-19T19:57:21.473Z,23.77
2023-05-19T19:59:55.017Z,23.80
2023-05-19T20:02:22.171Z,23.10
2023-05-19T20:04:49.617Z,25.27
2023-05-19T20:07:19.681Z,26.08
2023-05-19T20:09:49.060Z,25.70
2023-05-19T20:12:15.930Z,26.02
2023-05-19T20:14:43.902Z,25.77
2023-05-19T20:17:10.668Z,26.33
2023-05-19T20:19:37.579Z,24.20
2023-05-19T20:22:04.558Z,25.52
2023-05-19T20:24:31.306Z,23.83
2023-05-19T20:26:58.118Z,23.55
2023-05-19T20:29:24.946Z,23.27
2023-05-19T20:31:51.700Z,25.65
2023-05-19T20:34:18.609Z,23.92
2023-05-19T20:36:48.613Z,25.17
2023-05-19T20:39:15.674Z,24.73
2023-05-19T20:41:45.535Z,23.77
2023-05-19T20:44:12.832Z,23.02
2023-05-19T20:46:39.567Z,23.73
2023-05-19T20:49:06.487Z,27.35
2023-05-19T20:51:33.264Z,26.33
2023-05-19T20:54:02.978Z,24.27
2023-05-19T20:56:29.716Z,24.85
2023-05-19T20:58:56.574Z,23.08
2023-05-19T21:01:25.389Z,23.60
2023-05-19T21:03:53.435Z,22.98
2023-05-19T21:06:20.199Z,21.30
2023-05-19T21:08:49.155Z,21.67
2023-05-19T21:11:16.179Z,21.65
2023-05-19T21:13:43.481Z,21.10
2023-05-19T21:16:10.606Z,20.15
2023-05-19T21:18:37.517Z,22.73
2023-05-19T21:21:04.507Z,22.27
2023-05-19T21:23:31.359Z,26.05
2023-05-19T21:25:59.693Z,26.38
2023-05-19T21:28:26.614Z,25.98
2023-05-19T21:30:56.900Z,24.70
2023-05-19T21:33:24.729Z,26.30
2023-05-19T21:35:51.456Z,24.45
2023-05-19T21:38:24.038Z,23.15
2023-05-19T21:40:52.151Z,22.27
2023-05-19T21:43:19.575Z,22.93
2023-05-19T21:45:46.406Z,21.77
2023-05-19T21:48:13.260Z,24.15
2023-05-19T21:50:40.126Z,26.38
2023-05-19T21:53:06.853Z,25.35
2023-05-19T21:55:33.714Z,26.17
2023-05-19T21:58:02.646Z,24.00
2023-05-19T22:00:33.031Z,23.65
2023-05-19T22:03:00.287Z,24.70
2023-05-19T22:05:29.664Z,23.80
2023-05-19T22:07:56.643Z,20.27
2023-05-19T22:10:23.488Z,22.45
2023-05-19T22:12:50.340Z,23.58
2023-05-19T22:15:17.136Z,24.52
2023-05-19T22:17:44.280Z,24.27
2023-05-19T22:20:11.936Z,25.27
2023-05-19T22:22:38.691Z,26.38
2023-05-19T22:25:06.168Z,27.58
2023-05-19T22:27:32.968Z,26.55
2023-05-19T22:29:59.898Z,27.70
2023-05-19T22:32:26.922Z,25.40
2023-05-19T22:34:53.810Z,25.88
2023-05-19T22:37:22.923Z,25.40
2023-05-19T22:39:49.698Z,24.75
2023-05-19T22:42:18.846Z,26.65
2023-05-19T22:44:46.140Z,26.38
2023-05-19T22:47:15.175Z,26.15
2023-05-19T22:49:42.897Z,26.17
2023-05-19T22:52:11.194Z,26.05
2023-05-19T22:54:38.469Z,25.75
2023-05-19T22:57:05.589Z,26.93
2023-05-19T22:59:32.388Z,26.08
2023-05-19T23:01:59.149Z,28.40
2023-05-19T23:04:26.158Z,27.58
2023-05-19T23:06:53.109Z,27.95
2023-05-19T23:09:19.959Z,25.97
2023-05-19T23:11:46.780Z,25.25
2023-05-19T23:14:13.523Z,25.83
2023-05-19T23:16:40.310Z,25.27
2023-05-19T23:19:07.431Z,26.88
2023-05-19T23:21:34.254Z,23.13
2023-05-19T23:24:01.119Z,27.42
2023-05-19T23:26:27.884Z,25.90
2023-05-19T23:28:54.726Z,27.30
2023-05-19T23:31:21.524Z,25.98
2023-05-19T23:33:48.272Z,25.33
2023-05-19T23:36:15.903Z,26.52
2023-05-19T23:38:42.698Z,27.50
2023-05-19T23:41:09.487Z,27.13
2023-05-19T23:43:36.321Z,27.85
2023-05-19T23:46:03.401Z,25.63
2023-05-19T23:48:31.350Z,25.00
2023-05-19T23:51:00.854Z,24.80
2023-05-19T23:53:27.626Z,26.20
2023-05-19T23:55:55.280Z,25.63
2023-05-19T23:58:23.541Z,25.10
